Elm Grove, West Virginia
Current Conditions -  °F | °C
As of 4:53 PM on Monday 20 Oct 2014 (Local Time) from KHLG Reporting Station
Overcast Overcast  
Wind Chill: 56°   Ceiling: 10000
Heat Index: 56°   Visibility: 10mi
Dew Point: 42°   Wind: 10mph
Humidity: 60%   Direction: 190°S
Pressure: 29.89"   Gusts: NA
Location:  40.0729°N, 80.6524°W
Report Text: KHLG 202053Z 19009KT 10SM BKN100 OVC120 13/06 A2989 RMK AO2 SLP126 T01330056 56008
Loading
Personal Weather Stations






























Interactive Weather Map New forecast layout! Learn more

10-Day Weather Forecast

Advertisements
Track Severe Weather on mobile